KORC

Orange City Municipal Airport

Orange City, Iowa, USA
METAR KORC 160555Z AUTO 09003KT 10SM BKN110 22/19 A2997 RMK AO2
Observed Flight Rules
Aug-16 @ 05:55 UTC (21 minutes ago) Visual Flight Rules
Wind Visibility Clouds
90° at 3 knots 10 miles
  • Broken at 11,000' AGL
Temperatures Readings
Current 22°C / 72°F
Dewpoint 19°C / 66°F
Humidity 83%
Altimeter 29.97" Hg
Pressure 1015 hPa
Elevation 431
METAR KORC 160555Z AUTO 09003KT 10SM BKN110 22/19 A2997 RMK AO2
Observed Flight Rules
Aug-16 @ 05:55 UTC
(21 minutes ago)
VFR
Wind Visibility
90° at 3 knots 10 miles
Clouds
  • Broken at 11,000' AGL
Temperature Dewpoint
22°C / 72°F 19°C / 66°F
Humidity Altimeter Pressure
83% 29.97" Hg 1015 hPa